createdAt,value
2023-04-18T00:03:45.790Z,15.80
2023-04-18T00:08:48.024Z,15.30
2023-04-18T00:13:49.739Z,17.23
2023-04-18T00:18:53.031Z,16.00
2023-04-18T00:23:54.788Z,15.18
2023-04-18T00:28:56.594Z,15.43
2023-04-18T00:33:58.292Z,15.85
2023-04-18T00:39:00.109Z,18.40
2023-04-18T00:44:01.846Z,17.30
2023-04-18T00:49:03.781Z,22.23
2023-04-18T00:54:07.831Z,20.60
2023-04-18T00:59:10.537Z,24.38
2023-04-18T01:04:12.687Z,23.08
2023-04-18T01:09:15.390Z,25.60
2023-04-18T01:14:20.306Z,26.95
2023-04-18T01:19:23.151Z,29.00
2023-04-18T01:24:26.760Z,29.02
2023-04-18T01:29:28.753Z,26.65
2023-04-18T01:34:30.589Z,27.20
2023-04-18T01:39:32.270Z,26.75
2023-04-18T01:44:34.047Z,29.98
2023-04-18T01:49:35.764Z,28.30
2023-04-18T01:54:37.409Z,25.13
2023-04-18T01:59:39.078Z,26.92
2023-04-18T02:04:40.833Z,25.63
2023-04-18T02:09:42.513Z,26.95
2023-04-18T02:14:44.239Z,24.67
2023-04-18T02:19:46.623Z,24.48
2023-04-18T02:24:48.295Z,23.50
2023-04-18T02:29:49.939Z,25.13
2023-04-18T02:34:51.778Z,27.45
2023-04-18T02:39:53.939Z,27.77
2023-04-18T02:44:55.655Z,25.05
2023-04-18T02:49:57.373Z,26.92
2023-04-18T02:54:59.078Z,26.20
2023-04-18T03:00:00.844Z,26.30
2023-04-18T03:05:02.805Z,25.05
2023-04-18T03:10:05.331Z,23.88
2023-04-18T03:15:07.648Z,24.40
2023-04-18T03:20:10.422Z,25.65
2023-04-18T03:25:12.112Z,24.98
2023-04-18T03:30:14.045Z,26.02
2023-04-18T03:35:15.961Z,24.52
2023-04-18T03:40:18.983Z,25.80
2023-04-18T03:45:20.766Z,23.15
2023-04-18T03:50:24.252Z,19.60
2023-04-18T03:55:26.521Z,19.52
2023-04-18T04:00:28.359Z,20.20
2023-04-18T04:05:30.414Z,20.95
2023-04-18T04:10:32.097Z,18.67
2023-04-18T04:15:33.827Z,20.00
2023-04-18T04:20:35.522Z,20.08
2023-04-18T04:25:38.651Z,18.60
2023-04-18T04:30:41.638Z,15.98
2023-04-18T04:35:43.659Z,20.10
2023-04-18T04:40:46.114Z,18.02
2023-04-18T04:45:52.969Z,16.38
2023-04-18T04:50:57.811Z,19.02
2023-04-18T04:55:59.593Z,17.70
2023-04-18T05:01:01.454Z,18.02
2023-04-18T05:06:03.619Z,16.35
2023-04-18T05:11:05.499Z,17.40
2023-04-18T05:16:07.658Z,20.38
2023-04-18T05:21:09.433Z,17.42
2023-04-18T05:26:11.144Z,16.70
2023-04-18T05:31:13.348Z,18.85
2023-04-18T05:36:15.087Z,17.48
2023-04-18T05:41:16.798Z,18.85
2023-04-18T05:46:18.500Z,17.50
2023-04-18T05:51:20.273Z,16.70
2023-04-18T05:56:22.153Z,16.55
2023-04-18T06:01:24.072Z,17.60
2023-04-18T06:06:26.322Z,18.40
2023-04-18T06:11:28.313Z,19.08
2023-04-18T06:16:30.190Z,17.58
2023-04-18T06:21:32.111Z,17.95
2023-04-18T06:26:33.882Z,17.17
2023-04-18T06:31:35.806Z,17.67
2023-04-18T06:36:37.557Z,17.60
2023-04-18T06:41:39.389Z,17.00
2023-04-18T06:46:42.213Z,15.07
2023-04-18T06:51:44.025Z,16.02
2023-04-18T06:56:45.899Z,14.88
2023-04-18T07:01:48.013Z,14.10
2023-04-18T07:06:49.864Z,14.65
2023-04-18T07:11:52.571Z,13.68
2023-04-18T07:16:54.413Z,13.80
2023-04-18T07:21:56.379Z,15.18
2023-04-18T07:26:58.128Z,14.38
2023-04-18T07:31:59.970Z,15.20
2023-04-18T07:37:01.731Z,14.98
2023-04-18T07:42:04.549Z,14.20
2023-04-18T07:47:11.090Z,14.73
2023-04-18T07:52:12.901Z,12.63
2023-04-18T07:57:14.629Z,12.05
2023-04-18T08:02:16.475Z,13.75
2023-04-18T08:07:18.300Z,14.73
2023-04-18T08:12:20.151Z,15.38
2023-04-18T08:17:23.031Z,14.02
2023-04-18T08:22:24.772Z,11.68
2023-04-18T08:27:26.608Z,14.63
2023-04-18T08:32:28.608Z,13.98
2023-04-18T08:37:31.059Z,12.30
2023-04-18T08:42:33.460Z,15.25
2023-04-18T08:47:35.876Z,14.23
2023-04-18T08:52:41.389Z,14.15
2023-04-18T08:57:43.708Z,13.77
2023-04-18T09:02:47.136Z,15.05
2023-04-18T09:07:50.743Z,13.55
2023-04-18T09:12:52.520Z,14.88
2023-04-18T09:17:57.771Z,17.27
2023-04-18T09:23:00.739Z,12.55
2023-04-18T09:28:04.645Z,14.10
2023-04-18T09:33:10.156Z,13.07
2023-04-18T09:38:11.933Z,13.50
2023-04-18T09:43:20.470Z,14.35
2023-04-18T09:48:22.167Z,15.05
2023-04-18T09:53:24.860Z,13.88
2023-04-18T09:58:30.726Z,12.43
2023-04-18T10:03:38.783Z,14.82
2023-04-18T10:08:40.906Z,13.25
2023-04-18T10:13:44.625Z,12.30
2023-04-18T10:18:46.425Z,13.55
2023-04-18T10:23:49.248Z,15.15
2023-04-18T10:28:59.006Z,13.38
2023-04-18T10:34:05.091Z,13.88
2023-04-18T10:39:29.983Z,12.50
2023-04-18T10:44:31.765Z,15.25
2023-04-18T10:49:36.019Z,13.88
2023-04-18T10:55:18.574Z,13.70
2023-04-18T11:00:22.796Z,13.23
2023-04-18T11:05:29.072Z,15.13
2023-04-18T11:10:31.888Z,14.35
2023-04-18T11:15:36.724Z,14.32
2023-04-18T11:20:40.017Z,16.58
2023-04-18T11:25:44.996Z,15.43
2023-04-18T11:30:47.032Z,17.95
2023-04-18T11:35:48.819Z,15.43
2023-04-18T11:40:51.258Z,15.98
2023-04-18T11:45:57.902Z,15.80
2023-04-18T11:50:59.781Z,17.05
2023-04-18T11:56:03.485Z,15.15
2023-04-18T12:01:22.107Z,13.10
2023-04-18T12:06:24.026Z,15.52
2023-04-18T12:11:26.191Z,17.02
2023-04-18T12:16:28.363Z,17.02
2023-04-18T12:21:33.011Z,14.73
2023-04-18T12:26:34.748Z,16.10
2023-04-18T12:31:36.680Z,16.20
2023-04-18T12:36:38.445Z,16.65
2023-04-18T12:41:40.628Z,17.27
2023-04-18T12:46:42.352Z,17.92
2023-04-18T12:51:44.126Z,17.00
2023-04-18T12:56:46.398Z,16.95
2023-04-18T13:01:48.159Z,16.08
2023-04-18T13:06:49.973Z,15.40
2023-04-18T13:11:52.271Z,14.43
2023-04-18T13:16:54.134Z,17.08
2023-04-18T13:21:57.818Z,17.33
2023-04-18T13:27:01.650Z,16.35
2023-04-18T13:32:04.288Z,16.38
2023-04-18T13:37:06.552Z,17.65
2023-04-18T13:42:10.213Z,17.92
2023-04-18T13:47:12.053Z,19.23
2023-04-18T13:52:13.856Z,18.77
2023-04-18T13:57:15.849Z,22.25
2023-04-18T14:02:17.989Z,18.20
2023-04-18T14:07:20.145Z,16.88
2023-04-18T14:12:22.638Z,19.20
2023-04-18T14:17:24.457Z,20.02
2023-04-18T14:22:26.908Z,18.23
2023-04-18T14:27:28.831Z,20.15
2023-04-18T14:32:30.655Z,17.63
2023-04-18T14:37:32.497Z,17.58
2023-04-18T14:42:34.219Z,17.17
2023-04-18T14:47:36.781Z,19.17
2023-04-18T14:52:39.410Z,18.80
2023-04-18T14:57:41.144Z,20.65
2023-04-18T15:02:43.042Z,18.83
2023-04-18T15:07:45.148Z,18.70
2023-04-18T15:12:46.845Z,17.52
2023-04-18T15:17:48.572Z,19.33
2023-04-18T15:22:50.730Z,19.50
2023-04-18T15:27:52.693Z,19.30
2023-04-18T15:32:54.407Z,19.50
2023-04-18T15:37:57.655Z,20.63
2023-04-18T15:42:59.715Z,17.25
2023-04-18T15:48:02.228Z,18.30
2023-04-18T15:53:03.932Z,21.73
2023-04-18T15:58:06.611Z,19.85
2023-04-18T16:03:10.463Z,18.17
2023-04-18T16:08:12.238Z,18.58
2023-04-18T16:13:14.031Z,17.55
2023-04-18T16:18:15.783Z,17.38
2023-04-18T16:23:17.669Z,22.35
2023-04-18T16:28:20.463Z,18.63
2023-04-18T16:33:25.717Z,21.17
2023-04-18T16:38:27.760Z,21.67
2023-04-18T16:43:36.307Z,19.15
2023-04-18T16:48:38.738Z,18.75
2023-04-18T16:53:40.504Z,19.77
2023-04-18T16:58:42.226Z,18.67
2023-04-18T17:03:44.644Z,19.33
2023-04-18T17:08:46.810Z,17.17
2023-04-18T17:13:50.982Z,20.30
2023-04-18T17:18:52.712Z,21.60
2023-04-18T17:23:55.155Z,22.60
2023-04-18T17:28:56.911Z,21.35
2023-04-18T17:33:59.050Z,23.00
2023-04-18T17:39:06.399Z,18.33
2023-04-18T17:44:10.173Z,19.60
2023-04-18T17:49:12.028Z,24.00
2023-04-18T17:54:13.977Z,19.48
2023-04-18T17:59:16.472Z,22.58
2023-04-18T18:04:19.688Z,21.58
2023-04-18T18:09:21.594Z,21.85
2023-04-18T18:14:23.441Z,27.10
2023-04-18T18:19:25.097Z,23.63
2023-04-18T18:24:27.060Z,25.85
2023-04-18T18:29:28.827Z,24.88
2023-04-18T18:34:31.984Z,31.75
2023-04-18T18:39:34.203Z,24.67
2023-04-18T18:44:35.942Z,44.83
2023-04-18T18:49:37.636Z,24.92
2023-04-18T18:54:39.400Z,27.73
2023-04-18T18:59:41.573Z,23.48
2023-04-18T19:04:43.979Z,22.75
2023-04-18T19:09:47.290Z,21.75
2023-04-18T19:14:50.517Z,20.52
2023-04-18T19:19:53.288Z,25.63
2023-04-18T19:24:55.071Z,21.77
2023-04-18T19:29:57.280Z,21.08
2023-04-18T19:34:59.597Z,22.38
2023-04-18T19:40:02.612Z,22.27
2023-04-18T19:45:05.671Z,25.05
2023-04-18T19:50:14.648Z,22.15
2023-04-18T19:55:16.567Z,22.20
2023-04-18T20:00:19.938Z,20.77
2023-04-18T20:05:21.958Z,21.77
2023-04-18T20:10:23.864Z,21.58
2023-04-18T20:15:25.616Z,22.27
2023-04-18T20:20:29.627Z,22.58
2023-04-18T20:25:33.683Z,22.30
2023-04-18T20:30:36.935Z,25.10
2023-04-18T20:35:38.962Z,23.35
2023-04-18T20:40:45.079Z,22.85
2023-04-18T20:45:51.123Z,22.20
2023-04-18T20:50:57.477Z,21.42
2023-04-18T20:56:02.917Z,23.90
2023-04-18T21:01:04.882Z,20.80
2023-04-18T21:06:06.635Z,19.92
2023-04-18T21:11:08.452Z,19.88
2023-04-18T21:16:10.823Z,19.38
2023-04-18T21:21:12.618Z,17.15
2023-04-18T21:26:14.384Z,17.27
2023-04-18T21:31:16.187Z,15.68
2023-04-18T21:36:17.945Z,15.93
2023-04-18T21:41:20.786Z,13.88
2023-04-18T21:46:22.633Z,11.45
2023-04-18T21:51:24.498Z,11.20
2023-04-18T21:56:26.761Z,10.02
2023-04-18T22:01:28.630Z,10.45
2023-04-18T22:06:32.325Z,9.98
2023-04-18T22:11:34.095Z,11.48
2023-04-18T22:16:35.995Z,10.90
2023-04-18T22:21:37.898Z,8.27
2023-04-18T22:26:40.797Z,9.63
2023-04-18T22:31:43.806Z,7.93
2023-04-18T22:36:45.529Z,7.47
2023-04-18T22:41:47.197Z,8.93
2023-04-18T22:46:49.491Z,8.63
2023-04-18T22:51:54.253Z,7.28
2023-04-18T22:56:58.317Z,11.27
2023-04-18T23:02:00.469Z,8.27
2023-04-18T23:07:02.681Z,7.70
2023-04-18T23:12:04.708Z,7.28
2023-04-18T23:17:06.380Z,5.95
2023-04-18T23:22:08.062Z,6.65
2023-04-18T23:27:09.743Z,6.95
2023-04-18T23:32:11.435Z,7.60
2023-04-18T23:37:13.160Z,7.40
2023-04-18T23:42:14.811Z,7.90
2023-04-18T23:47:16.542Z,6.85
2023-04-18T23:52:18.416Z,6.88
2023-04-18T23:57:20.113Z,8.27
